createdAt,value
2023-04-10T00:00:41.671Z,26.20
2023-04-10T00:03:10.026Z,27.10
2023-04-10T00:05:38.464Z,29.15
2023-04-10T00:08:06.799Z,27.95
2023-04-10T00:10:35.040Z,26.83
2023-04-10T00:13:04.770Z,29.15
2023-04-10T00:15:34.243Z,31.77
2023-04-10T00:18:04.159Z,28.92
2023-04-10T00:20:32.360Z,27.52
2023-04-10T00:23:00.840Z,29.45
2023-04-10T00:25:29.217Z,27.10
2023-04-10T00:27:57.581Z,24.80
2023-04-10T00:30:26.073Z,26.63
2023-04-10T00:32:55.800Z,28.65
2023-04-10T00:35:24.060Z,28.45
2023-04-10T00:37:54.895Z,27.52
2023-04-10T00:40:26.070Z,28.00
2023-04-10T00:42:54.337Z,28.00
2023-04-10T00:45:22.774Z,26.38
2023-04-10T00:47:51.300Z,27.45
2023-04-10T00:50:21.363Z,27.83
2023-04-10T00:52:49.877Z,29.50
2023-04-10T00:55:18.251Z,28.80
2023-04-10T00:57:47.733Z,30.35
2023-04-10T01:00:16.957Z,29.85
2023-04-10T01:02:45.695Z,32.13
2023-04-10T01:05:14.907Z,30.45
2023-04-10T01:07:55.212Z,28.90
2023-04-10T01:10:30.931Z,29.20
2023-04-10T01:13:08.058Z,34.63
2023-04-10T01:15:47.232Z,29.35
2023-04-10T01:18:24.721Z,30.65
2023-04-10T01:20:52.999Z,31.60
2023-04-10T01:23:58.595Z,34.70
2023-04-10T01:26:41.257Z,29.13
2023-04-10T01:29:16.007Z,32.00
2023-04-10T01:31:53.412Z,34.45
2023-04-10T01:34:25.072Z,30.42
2023-04-10T01:37:00.994Z,36.88
2023-04-10T01:39:31.740Z,35.38
2023-04-10T01:42:02.530Z,33.58
2023-04-10T01:44:45.639Z,34.97
2023-04-10T01:47:16.452Z,33.85
2023-04-10T01:49:46.841Z,32.90
2023-04-10T01:52:15.996Z,32.88
2023-04-10T01:54:49.551Z,33.58
2023-04-10T01:57:24.629Z,37.30
2023-04-10T01:59:57.616Z,36.45
2023-04-10T02:02:26.412Z,36.30
2023-04-10T02:04:54.602Z,35.13
2023-04-10T02:07:29.724Z,34.60
2023-04-10T02:10:03.456Z,35.05
2023-04-10T02:12:35.758Z,34.17
2023-04-10T02:15:08.554Z,33.10
2023-04-10T02:17:37.689Z,33.10
2023-04-10T02:20:08.920Z,36.90
2023-04-10T02:22:38.237Z,34.75
2023-04-10T02:25:07.180Z,33.00
2023-04-10T02:27:37.361Z,34.38
2023-04-10T02:30:08.256Z,36.03
2023-04-10T02:32:37.900Z,32.88
2023-04-10T02:35:10.072Z,33.05
2023-04-10T02:37:39.346Z,32.95
2023-04-10T02:40:10.571Z,39.95
2023-04-10T02:42:48.247Z,36.95
2023-04-10T02:45:18.032Z,32.03
2023-04-10T02:47:46.509Z,37.20
2023-04-10T02:50:15.013Z,36.78
2023-04-10T02:52:46.247Z,34.22
2023-04-10T02:55:14.649Z,32.55
2023-04-10T02:57:43.726Z,36.75
2023-04-10T03:00:13.375Z,34.92
2023-04-10T03:03:07.288Z,37.78
2023-04-10T03:05:55.935Z,33.60
2023-04-10T03:08:30.409Z,34.47
2023-04-10T03:10:58.792Z,30.35
2023-04-10T03:13:27.224Z,34.70
2023-04-10T03:15:55.706Z,31.70
2023-04-10T03:18:25.697Z,31.80
2023-04-10T03:20:56.469Z,31.63
2023-04-10T03:23:24.719Z,33.92
2023-04-10T03:25:54.010Z,32.08
2023-04-10T03:28:25.461Z,32.60
2023-04-10T03:30:53.666Z,30.40
2023-04-10T03:33:21.823Z,31.50
2023-04-10T03:35:52.059Z,34.85
2023-04-10T03:38:20.438Z,32.33
2023-04-10T03:40:48.646Z,35.03
2023-04-10T03:43:20.067Z,31.17
2023-04-10T03:45:49.080Z,35.92
2023-04-10T03:48:18.022Z,30.40
2023-04-10T03:50:48.206Z,30.40
2023-04-10T03:53:18.602Z,32.60
2023-04-10T03:55:47.075Z,31.90
2023-04-10T03:58:15.360Z,30.98
2023-04-10T04:00:43.729Z,32.08
2023-04-10T04:03:24.173Z,30.25
2023-04-10T04:06:11.078Z,29.95
2023-04-10T04:08:46.294Z,27.83
2023-04-10T04:11:49.974Z,26.98
2023-04-10T04:14:50.949Z,29.42
2023-04-10T04:17:39.466Z,27.98
2023-04-10T04:20:08.960Z,27.40
2023-04-10T04:22:50.176Z,29.02
2023-04-10T04:25:39.436Z,27.70
2023-04-10T04:28:27.515Z,24.95
2023-04-10T04:31:16.299Z,25.98
2023-04-10T04:34:03.315Z,25.77
2023-04-10T04:36:48.909Z,26.95
2023-04-10T04:39:35.062Z,23.30
2023-04-10T04:42:04.802Z,26.33
2023-04-10T04:45:03.849Z,23.88
2023-04-10T04:47:51.204Z,24.63
2023-04-10T04:50:26.782Z,25.63
2023-04-10T04:53:06.069Z,23.63
2023-04-10T04:55:59.678Z,23.95
2023-04-10T04:58:51.048Z,20.80
2023-04-10T05:01:38.103Z,21.73
2023-04-10T05:04:21.414Z,20.05
2023-04-10T05:07:18.504Z,21.10
2023-04-10T05:10:10.676Z,18.50
2023-04-10T05:12:50.039Z,20.52
2023-04-10T05:15:26.505Z,23.50
2023-04-10T05:18:06.602Z,19.08
2023-04-10T05:20:53.375Z,25.63
2023-04-10T05:23:41.067Z,21.38
2023-04-10T05:26:28.842Z,18.92
2023-04-10T05:29:16.039Z,20.13
2023-04-10T05:31:59.910Z,20.00
2023-04-10T05:34:43.045Z,17.20
2023-04-10T05:37:14.996Z,18.90
2023-04-10T05:39:48.207Z,19.58
2023-04-10T05:42:38.751Z,20.13
2023-04-10T05:45:33.252Z,22.42
2023-04-10T05:48:19.868Z,20.08
2023-04-10T05:51:03.608Z,19.60
2023-04-10T05:53:53.622Z,18.05
2023-04-10T05:56:42.336Z,19.73
2023-04-10T05:59:30.810Z,20.38
2023-04-10T06:02:17.726Z,16.40
2023-04-10T06:04:48.643Z,22.67
2023-04-10T06:07:17.583Z,24.17
2023-04-10T06:09:45.669Z,20.65
2023-04-10T06:12:13.850Z,21.48
2023-04-10T06:14:42.593Z,20.73
2023-04-10T06:17:11.394Z,22.35
2023-04-10T06:19:39.602Z,26.65
2023-04-10T06:22:09.240Z,20.95
2023-04-10T06:24:37.638Z,22.35
2023-04-10T06:27:06.985Z,17.75
2023-04-10T06:29:35.122Z,21.83
2023-04-10T06:32:04.358Z,21.58
2023-04-10T06:34:36.473Z,20.42
2023-04-10T06:37:09.158Z,17.23
2023-04-10T06:39:39.353Z,21.08
2023-04-10T06:42:08.783Z,17.60
2023-04-10T06:44:53.215Z,21.15
2023-04-10T06:47:21.838Z,16.45
2023-04-10T06:49:50.084Z,16.20
2023-04-10T06:52:19.941Z,14.88
2023-04-10T06:54:48.483Z,16.88
2023-04-10T06:57:17.192Z,17.75
2023-04-10T06:59:45.567Z,17.13
2023-04-10T07:02:13.886Z,17.27
2023-04-10T07:04:42.933Z,15.18
2023-04-10T07:07:13.339Z,16.33
2023-04-10T07:09:43.774Z,15.45
2023-04-10T07:12:12.056Z,14.32
2023-04-10T07:14:41.409Z,16.77
2023-04-10T07:17:09.805Z,16.13
2023-04-10T07:19:38.217Z,16.58
2023-04-10T07:22:06.496Z,16.15
2023-04-10T07:24:34.609Z,14.30
2023-04-10T07:27:04.245Z,13.98
2023-04-10T07:29:32.452Z,16.13
2023-04-10T07:32:00.742Z,15.45
2023-04-10T07:34:28.988Z,17.55
2023-04-10T07:36:57.207Z,14.82
2023-04-10T07:39:25.348Z,18.63
2023-04-10T07:41:55.217Z,18.55
2023-04-10T07:44:24.697Z,16.52
2023-04-10T07:46:53.178Z,18.35
2023-04-10T07:49:21.348Z,18.83
2023-04-10T07:51:49.618Z,18.30
2023-04-10T07:54:17.658Z,18.20
2023-04-10T07:56:46.063Z,17.55
2023-04-10T07:59:14.181Z,20.98
2023-04-10T08:01:43.914Z,19.70
2023-04-10T08:04:12.259Z,18.42
2023-04-10T08:06:40.843Z,22.52
2023-04-10T08:09:08.981Z,19.40
2023-04-10T08:11:38.666Z,23.88
2023-04-10T08:14:07.490Z,26.05
2023-04-10T08:16:38.574Z,24.92
2023-04-10T08:19:08.278Z,22.65
2023-04-10T08:21:36.365Z,20.58
2023-04-10T08:24:05.892Z,18.23
2023-04-10T08:26:34.009Z,21.02
2023-04-10T08:29:02.302Z,19.05
2023-04-10T08:31:30.918Z,19.48
2023-04-10T08:33:59.924Z,15.07
2023-04-10T08:36:29.684Z,15.77
2023-04-10T08:38:58.122Z,16.83
2023-04-10T08:41:26.672Z,12.38
2023-04-10T08:43:55.175Z,10.38
2023-04-10T08:46:26.142Z,12.48
2023-04-10T08:48:59.938Z,14.02
2023-04-10T08:51:36.967Z,13.85
2023-04-10T08:54:08.484Z,19.05
2023-04-10T08:56:38.821Z,14.93
2023-04-10T08:59:06.967Z,12.70
2023-04-10T09:01:36.482Z,9.75
2023-04-10T09:04:04.987Z,11.32
2023-04-10T09:06:34.585Z,14.15
2023-04-10T09:09:03.110Z,14.90
2023-04-10T09:12:00.848Z,9.85
2023-04-10T09:14:31.163Z,12.55
2023-04-10T09:17:19.817Z,14.25
2023-04-10T09:19:49.294Z,13.23
2023-04-10T09:22:18.941Z,10.07
2023-04-10T09:24:48.443Z,10.95
2023-04-10T09:27:32.688Z,13.00
2023-04-10T09:30:01.217Z,9.75
2023-04-10T09:32:40.729Z,10.73
2023-04-10T09:35:10.264Z,9.32
2023-04-10T09:37:41.292Z,9.10
2023-04-10T09:40:21.916Z,11.27
2023-04-10T09:42:50.335Z,6.93
2023-04-10T09:45:20.181Z,6.32
2023-04-10T09:48:03.501Z,8.02
2023-04-10T09:50:39.498Z,11.15
2023-04-10T09:53:09.967Z,7.63
2023-04-10T09:55:38.763Z,11.93
2023-04-10T09:58:08.349Z,6.65
2023-04-10T10:00:43.294Z,6.28
2023-04-10T10:03:13.471Z,9.45
2023-04-10T10:05:45.468Z,10.73
2023-04-10T10:08:16.023Z,10.45
2023-04-10T10:10:48.345Z,6.78
2023-04-10T10:13:24.954Z,11.23
2023-04-10T10:15:59.447Z,8.38
2023-04-10T10:18:37.532Z,9.48
2023-04-10T10:21:07.091Z,5.97
2023-04-10T10:23:56.181Z,9.57
2023-04-10T10:26:25.348Z,8.80
2023-04-10T10:28:54.063Z,10.15
2023-04-10T10:31:24.430Z,6.25
2023-04-10T10:33:53.730Z,7.55
2023-04-10T10:36:23.319Z,9.93
2023-04-10T10:38:59.609Z,8.48
2023-04-10T10:41:33.848Z,7.25
2023-04-10T10:44:09.674Z,8.07
2023-04-10T10:46:44.406Z,6.20
2023-04-10T10:49:12.601Z,8.05
2023-04-10T10:51:48.844Z,8.10
2023-04-10T10:54:32.066Z,11.00
2023-04-10T10:57:00.466Z,6.85
2023-04-10T10:59:59.439Z,5.60
2023-04-10T11:02:27.816Z,7.00
2023-04-10T11:04:56.031Z,6.00
2023-04-10T11:08:03.027Z,7.63
2023-04-10T11:11:02.957Z,10.95
2023-04-10T11:13:31.378Z,8.20
2023-04-10T11:16:02.071Z,6.97
2023-04-10T11:19:13.915Z,7.70
2023-04-10T11:22:09.360Z,7.82
2023-04-10T11:24:57.722Z,8.20
2023-04-10T11:27:48.703Z,5.55
2023-04-10T11:30:34.508Z,6.70
2023-04-10T11:33:04.137Z,6.20
2023-04-10T11:35:33.190Z,9.20
2023-04-10T11:38:16.083Z,8.27
2023-04-10T11:41:04.076Z,13.25
2023-04-10T11:43:35.413Z,6.90
2023-04-10T11:46:05.708Z,6.30
2023-04-10T11:48:34.358Z,4.32
2023-04-10T11:51:12.411Z,7.97
2023-04-10T11:53:41.064Z,7.03
2023-04-10T11:56:17.798Z,8.20
2023-04-10T11:58:51.171Z,8.15
2023-04-10T12:01:22.795Z,5.90
2023-04-10T12:03:51.641Z,12.40
2023-04-10T12:06:21.470Z,5.00
2023-04-10T12:08:51.259Z,8.82
2023-04-10T12:11:20.445Z,7.15
2023-04-10T12:13:53.171Z,6.85
2023-04-10T12:16:21.778Z,4.95
2023-04-10T12:18:50.673Z,7.22
2023-04-10T12:21:19.368Z,8.63
2023-04-10T12:23:47.491Z,6.22
2023-04-10T12:26:17.001Z,5.88
2023-04-10T12:28:57.623Z,4.80
2023-04-10T12:31:29.918Z,8.63
2023-04-10T12:33:58.677Z,5.97
2023-04-10T12:36:29.362Z,5.68
2023-04-10T12:38:58.616Z,5.88
2023-04-10T12:41:28.400Z,6.88
2023-04-10T12:44:09.662Z,6.60
2023-04-10T12:46:38.869Z,8.93
2023-04-10T12:49:12.127Z,5.68
2023-04-10T12:51:44.338Z,4.53
2023-04-10T12:54:12.631Z,6.20
2023-04-10T12:56:42.502Z,5.00
2023-04-10T12:59:12.749Z,5.55
2023-04-10T13:01:41.217Z,5.47
2023-04-10T13:04:09.547Z,8.75
2023-04-10T13:06:44.400Z,5.20
2023-04-10T13:09:13.294Z,7.65
2023-04-10T13:11:41.779Z,7.18
2023-04-10T13:14:11.612Z,4.60
2023-04-10T13:16:40.181Z,5.13
2023-04-10T13:19:08.392Z,5.35
2023-04-10T13:21:36.525Z,4.93
2023-04-10T13:24:04.802Z,6.53
2023-04-10T13:26:32.857Z,6.55
2023-04-10T13:29:01.133Z,7.90
2023-04-10T13:31:30.737Z,7.07
2023-04-10T13:33:58.885Z,13.10
2023-04-10T13:36:27.397Z,8.57
2023-04-10T13:38:55.919Z,6.85
2023-04-10T13:41:24.792Z,4.90
2023-04-10T13:43:53.342Z,7.65
2023-04-10T13:46:21.653Z,5.88
2023-04-10T13:48:51.230Z,4.40
2023-04-10T13:51:19.387Z,9.93
2023-04-10T13:53:47.556Z,5.38
2023-04-10T13:56:15.677Z,6.05
2023-04-10T13:58:43.917Z,5.70
2023-04-10T14:01:12.566Z,13.13
2023-04-10T14:03:40.842Z,6.60
2023-04-10T14:06:10.573Z,10.07
2023-04-10T14:08:38.760Z,7.55
2023-04-10T14:11:07.700Z,7.82
2023-04-10T14:13:36.025Z,7.75
2023-04-10T14:16:04.413Z,8.77
2023-04-10T14:18:32.630Z,5.53
2023-04-10T14:21:00.952Z,7.10
2023-04-10T14:23:30.458Z,7.43
2023-04-10T14:25:58.658Z,5.78
2023-04-10T14:28:26.898Z,4.95
2023-04-10T14:30:55.011Z,4.78
2023-04-10T14:33:23.230Z,6.78
2023-04-10T14:35:51.485Z,4.82
2023-04-10T14:38:19.724Z,4.82
2023-04-10T14:40:50.319Z,4.30
2023-04-10T14:43:19.610Z,4.47
2023-04-10T14:45:47.866Z,4.20
2023-04-10T14:48:16.541Z,4.93
2023-04-10T14:50:44.667Z,5.63
2023-04-10T14:53:12.855Z,8.27
2023-04-10T14:55:41.035Z,7.13
2023-04-10T14:58:11.432Z,4.03
2023-04-10T15:00:39.557Z,8.10
2023-04-10T15:03:08.615Z,5.60
2023-04-10T15:05:36.971Z,7.47
2023-04-10T15:08:05.348Z,7.30
2023-04-10T15:10:33.625Z,6.45
2023-04-10T15:13:02.000Z,5.88
2023-04-10T15:15:31.581Z,8.05
2023-04-10T15:17:59.837Z,7.68
2023-04-10T15:20:28.060Z,7.50
2023-04-10T15:22:56.406Z,10.57
2023-04-10T15:25:24.558Z,6.95
2023-04-10T15:27:53.095Z,9.95
2023-04-10T15:30:21.312Z,6.45
2023-04-10T15:32:50.989Z,7.20
2023-04-10T15:35:20.205Z,7.47
2023-04-10T15:37:48.491Z,6.90
2023-04-10T15:40:16.622Z,7.10
2023-04-10T15:42:44.891Z,6.53
2023-04-10T15:45:13.071Z,10.73
2023-04-10T15:47:41.322Z,11.18
2023-04-10T15:50:11.655Z,8.38
2023-04-10T15:52:39.925Z,8.55
2023-04-10T15:55:08.854Z,12.60
2023-04-10T15:57:37.202Z,7.97
2023-04-10T16:00:06.754Z,5.88
2023-04-10T16:02:35.260Z,6.72
2023-04-10T16:05:03.755Z,7.72
2023-04-10T16:07:34.048Z,4.85
2023-04-10T16:10:02.393Z,8.32
2023-04-10T16:12:30.682Z,8.32
2023-04-10T16:14:59.173Z,8.05
2023-04-10T16:17:27.555Z,6.30
2023-04-10T16:19:56.738Z,7.45
2023-04-10T16:22:25.294Z,6.45
2023-04-10T16:24:57.657Z,5.57
2023-04-10T16:27:25.794Z,5.68
2023-04-10T16:29:53.970Z,6.80
2023-04-10T16:32:22.643Z,6.07
2023-04-10T16:34:50.852Z,5.85
2023-04-10T16:37:19.003Z,6.30
2023-04-10T16:39:47.141Z,7.20
2023-04-10T16:42:16.780Z,5.60
2023-04-10T16:44:44.880Z,8.93
2023-04-10T16:47:13.278Z,7.78
2023-04-10T16:49:45.625Z,6.80
2023-04-10T16:52:13.845Z,7.28
2023-04-10T16:54:42.301Z,7.38
2023-04-10T16:57:10.559Z,8.48
2023-04-10T16:59:40.070Z,16.75
2023-04-10T17:02:08.310Z,15.00
2023-04-10T17:04:36.376Z,23.58
2023-04-10T17:07:04.580Z,27.95
2023-04-10T17:09:32.893Z,25.05
2023-04-10T17:12:01.142Z,22.17
2023-04-10T17:14:29.393Z,11.45
2023-04-10T17:16:59.062Z,9.57
2023-04-10T17:19:27.186Z,7.75
2023-04-10T17:21:55.505Z,11.65
2023-04-10T17:24:23.643Z,8.27
2023-04-10T17:26:52.057Z,10.50
2023-04-10T17:29:20.428Z,8.23
2023-04-10T17:31:48.713Z,6.45
2023-04-10T17:34:18.223Z,9.00
2023-04-10T17:36:49.365Z,10.05
2023-04-10T17:39:17.753Z,8.68
2023-04-10T17:41:46.300Z,8.88
2023-04-10T17:44:14.549Z,12.57
2023-04-10T17:46:42.696Z,7.82
2023-04-10T17:49:10.910Z,11.95
2023-04-10T17:51:41.873Z,12.05
2023-04-10T17:54:10.582Z,7.57
2023-04-10T17:56:38.665Z,9.32
2023-04-10T17:59:06.925Z,9.65
2023-04-10T18:01:35.234Z,11.55
2023-04-10T18:04:04.105Z,7.88
2023-04-10T18:06:32.779Z,10.88
2023-04-10T18:09:02.364Z,11.05
2023-04-10T18:11:30.949Z,10.75
2023-04-10T18:13:59.279Z,9.77
2023-04-10T18:16:27.744Z,12.57
2023-04-10T18:18:56.194Z,11.20
2023-04-10T18:21:25.496Z,11.88
2023-04-10T18:23:54.560Z,16.27
2023-04-10T18:26:24.469Z,11.63
2023-04-10T18:28:53.474Z,10.82
2023-04-10T18:31:27.808Z,12.27
2023-04-10T18:34:06.472Z,15.60
2023-04-10T18:36:36.321Z,11.75
2023-04-10T18:39:04.865Z,14.20
2023-04-10T18:41:34.478Z,13.32
2023-04-10T18:44:05.446Z,16.00
2023-04-10T18:46:34.556Z,16.02
2023-04-10T18:49:03.270Z,16.33
2023-04-10T18:51:34.986Z,12.80
2023-04-10T18:54:03.778Z,13.02
2023-04-10T18:56:31.939Z,16.35
2023-04-10T18:59:01.577Z,14.93
2023-04-10T19:01:29.826Z,15.20
2023-04-10T19:03:58.442Z,16.08
2023-04-10T19:06:27.884Z,15.75
2023-04-10T19:08:56.959Z,14.88
2023-04-10T19:11:25.522Z,13.00
2023-04-10T19:13:54.177Z,15.30
2023-04-10T19:16:24.410Z,12.45
2023-04-10T19:18:54.769Z,16.17
2023-04-10T19:21:23.461Z,12.80
2023-04-10T19:23:51.674Z,13.45
2023-04-10T19:26:20.736Z,12.93
2023-04-10T19:28:48.984Z,14.65
2023-04-10T19:31:17.267Z,15.85
2023-04-10T19:33:46.944Z,15.88
2023-04-10T19:36:16.782Z,13.80
2023-04-10T19:38:48.976Z,14.77
2023-04-10T19:41:17.350Z,13.05
2023-04-10T19:43:45.598Z,14.52
2023-04-10T19:46:18.204Z,12.07
2023-04-10T19:48:47.812Z,14.73
2023-04-10T19:51:16.173Z,15.80
2023-04-10T19:53:44.642Z,15.57
2023-04-10T19:56:12.799Z,13.43
2023-04-10T19:58:55.997Z,18.75
2023-04-10T20:01:24.659Z,15.32
2023-04-10T20:03:54.437Z,15.05
2023-04-10T20:06:22.856Z,13.95
2023-04-10T20:08:51.002Z,17.73
2023-04-10T20:11:19.141Z,20.58
2023-04-10T20:13:47.528Z,14.20
2023-04-10T20:16:16.533Z,17.45
2023-04-10T20:18:44.768Z,19.17
2023-04-10T20:21:14.319Z,18.92
2023-04-10T20:23:42.842Z,15.75
2023-04-10T20:26:13.173Z,19.20
2023-04-10T20:28:41.707Z,19.42
2023-04-10T20:31:10.924Z,20.48
2023-04-10T20:33:39.374Z,18.30
2023-04-10T20:36:08.350Z,20.10
2023-04-10T20:38:38.237Z,22.20
2023-04-10T20:41:06.746Z,19.80
2023-04-10T20:43:34.844Z,21.73
2023-04-10T20:46:08.024Z,21.80
2023-04-10T20:48:38.010Z,22.17
2023-04-10T20:51:06.699Z,24.52
2023-04-10T20:53:35.168Z,19.63
2023-04-10T20:56:06.352Z,20.27
2023-04-10T20:58:34.761Z,20.30
2023-04-10T21:01:03.049Z,23.88
2023-04-10T21:03:31.459Z,22.27
2023-04-10T21:05:59.699Z,21.25
2023-04-10T21:08:28.378Z,17.63
2023-04-10T21:10:58.935Z,19.60
2023-04-10T21:13:28.509Z,20.27
2023-04-10T21:15:56.668Z,22.33
2023-04-10T21:18:24.940Z,18.33
2023-04-10T21:20:53.086Z,20.25
2023-04-10T21:23:21.516Z,21.35
2023-04-10T21:25:53.606Z,21.38
2023-04-10T21:28:22.021Z,21.73
2023-04-10T21:30:51.541Z,20.38
2023-04-10T21:33:19.796Z,22.83
2023-04-10T21:35:47.913Z,23.15
2023-04-10T21:38:16.552Z,26.02
2023-04-10T21:40:51.923Z,24.88
2023-04-10T21:43:20.434Z,23.13
2023-04-10T21:45:48.662Z,23.20
2023-04-10T21:48:19.556Z,22.08
2023-04-10T21:50:47.971Z,25.73
2023-04-10T21:53:16.245Z,23.75
2023-04-10T21:55:44.497Z,23.75
2023-04-10T21:58:12.671Z,21.48
2023-04-10T22:00:41.536Z,25.83
2023-04-10T22:03:10.051Z,25.08
2023-04-10T22:05:39.776Z,24.73
2023-04-10T22:08:09.243Z,21.95
2023-04-10T22:10:38.115Z,25.08
2023-04-10T22:13:06.745Z,20.95
2023-04-10T22:15:35.849Z,21.75
2023-04-10T22:18:04.079Z,22.17
2023-04-10T22:20:33.216Z,23.17
2023-04-10T22:23:03.440Z,24.13
2023-04-10T22:25:31.874Z,22.48
2023-04-10T22:28:00.291Z,24.77
2023-04-10T22:30:28.505Z,22.17
2023-04-10T22:32:57.377Z,24.13
2023-04-10T22:35:25.850Z,22.80
2023-04-10T22:37:53.992Z,25.40
2023-04-10T22:40:23.768Z,26.27
2023-04-10T22:42:52.010Z,24.05
2023-04-10T22:45:20.304Z,26.30
2023-04-10T22:47:48.449Z,22.33
2023-04-10T22:50:16.871Z,25.13
2023-04-10T22:52:44.954Z,23.00
2023-04-10T22:55:13.275Z,24.30
2023-04-10T22:57:42.854Z,22.98
2023-04-10T23:00:11.878Z,24.58
2023-04-10T23:02:40.004Z,29.38
2023-04-10T23:05:09.263Z,23.95
2023-04-10T23:07:37.368Z,24.40
2023-04-10T23:10:06.504Z,20.70
2023-04-10T23:12:34.630Z,26.05
2023-04-10T23:15:04.440Z,26.25
2023-04-10T23:17:32.551Z,32.20
2023-04-10T23:20:00.833Z,23.27
2023-04-10T23:22:29.666Z,26.48
2023-04-10T23:24:58.461Z,22.70
2023-04-10T23:27:26.758Z,23.65
2023-04-10T23:29:54.907Z,22.17
2023-04-10T23:32:24.351Z,29.90
2023-04-10T23:34:52.628Z,25.33
2023-04-10T23:37:21.153Z,27.05
2023-04-10T23:39:49.401Z,22.88
2023-04-10T23:42:17.859Z,23.33
2023-04-10T23:44:46.065Z,27.30
2023-04-10T23:47:14.172Z,28.08
2023-04-10T23:49:43.817Z,25.73
2023-04-10T23:52:11.976Z,25.75
2023-04-10T23:54:40.512Z,28.30
2023-04-10T23:57:08.685Z,32.65
2023-04-10T23:59:36.928Z,30.63
